Map

Track Data

SID SEASON NUMBER BASIN SUBBASIN NAME ISO_TIME NATURE LAT LON WMO_WIND WMO_PRES WMO_AGENCY TRACK_TYPE DIST2LAND LANDFALL IFLAG USA_AGENCY USA_ATCF_ID USA_LAT USA_LON USA_RECORD USA_STATUS USA_WIND USA_PRES USA_SSHS USA_R34_NE USA_R34_SE USA_R34_SW USA_R34_NW USA_R50_NE USA_R50_SE USA_R50_SW USA_R50_NW USA_R64_NE USA_R64_SE USA_R64_SW USA_R64_NW USA_POCI USA_ROCI USA_RMW USA_EYE TOKYO_LAT TOKYO_LON TOKYO_GRADE TOKYO_WIND TOKYO_PRES TOKYO_R50_DIR TOKYO_R50_LONG TOKYO_R50_SHORT TOKYO_R30_DIR TOKYO_R30_LONG TOKYO_R30_SHORT TOKYO_LAND CMA_LAT CMA_LON CMA_CAT CMA_WIND CMA_PRES HKO_LAT HKO_LON HKO_CAT HKO_WIND HKO_PRES NEWDELHI_LAT NEWDELHI_LON NEWDELHI_GRADE NEWDELHI_WIND NEWDELHI_PRES NEWDELHI_CI NEWDELHI_DP NEWDELHI_POCI REUNION_LAT REUNION_LON REUNION_TYPE REUNION_WIND REUNION_PRES REUNION_TNUM REUNION_CI REUNION_RMW REUNION_R34_NE REUNION_R34_SE REUNION_R34_SW REUNION_R34_NW REUNION_R50_NE REUNION_R50_SE REUNION_R50_SW REUNION_R50_NW REUNION_R64_NE REUNION_R64_SE REUNION_R64_SW REUNION_R64_NW BOM_LAT BOM_LON BOM_TYPE BOM_WIND BOM_PRES BOM_TNUM BOM_CI BOM_RMW BOM_R34_NE BOM_R34_SE BOM_R34_SW BOM_R34_NW BOM_R50_NE BOM_R50_SE BOM_R50_SW BOM_R50_NW BOM_R64_NE BOM_R64_SE BOM_R64_SW BOM_R64_NW BOM_ROCI BOM_POCI BOM_EYE BOM_POS_METHOD BOM_PRES_METHOD NADI_LAT NADI_LON NADI_CAT NADI_WIND NADI_PRES WELLINGTON_LAT WELLINGTON_LON WELLINGTON_WIND WELLINGTON_PRES DS824_LAT DS824_LON DS824_STAGE DS824_WIND DS824_PRES TD9636_LAT TD9636_LON TD9636_STAGE TD9636_WIND TD9636_PRES TD9635_LAT TD9635_LON TD9635_WIND TD9635_PRES TD9635_ROCI NEUMANN_LAT NEUMANN_LON NEUMANN_CLASS NEUMANN_WIND NEUMANN_PRES MLC_LAT MLC_LON MLC_CLASS MLC_WIND MLC_PRES USA_GUST BOM_GUST BOM_GUST_PER REUNION_GUST REUNION_GUST_PER USA_SEAHGT USA_SEARAD_NE USA_SEARAD_SE USA_SEARAD_SW USA_SEARAD_NW STORM_SPEED STORM_DIR
1888009S17071 1888 7 SI MM NOT_NAMED 1888-01-09 00:00:00 TS -17.3000 71.0000 main 1428 1408 _________O____ -1 -17.3000 71.0000 TC 4 255
1888009S17071 1888 7 SI MM NOT_NAMED 1888-01-09 03:00:00 TS -17.3526 70.7975 main 1405 1385 _________P____ -1 -17.3526 70.7975 TC 4 255
1888009S17071 1888 7 SI MM NOT_NAMED 1888-01-09 06:00:00 TS -17.4000 70.6000 main 1385 1364 _________O____ -1 -17.4000 70.6000 TC 4 256
1888009S17071 1888 7 SI MM NOT_NAMED 1888-01-09 09:00:00 TS -17.4425 70.4074 main 1364 1341 _________P____ -1 -17.4425 70.4074 TC 4 255
1888009S17071 1888 7 SI MM NOT_NAMED 1888-01-09 12:00:00 TS -17.5000 70.2000 main 1341 1317 _________O____ -1 -17.5000 70.2000 TC 5 251
1888009S17071 1888 7 SI MM NOT_NAMED 1888-01-09 15:00:00 TS -17.5925 69.9575 main 1317 1284 _________P____ -1 -17.5925 69.9575 TC 5 247
1888009S17071 1888 7 SI MM NOT_NAMED 1888-01-09 18:00:00 TS -17.7000 69.7000 main 1284 1260 _________O____ -1 -17.7000 69.7000 TC 5 246
1888009S17071 1888 7 SI MM NOT_NAMED 1888-01-09 21:00:00 TS -17.8074 69.4575 main 1260 1227 _________P____ -1 -17.8074 69.4575 TC 5 247
1888009S17071 1888 7 SI MM NOT_NAMED 1888-01-10 00:00:00 TS -17.9000 69.2000 main 1227 1193 _________O____ -1 -17.9000 69.2000 TC 5 253
1888009S17071 1888 7 SI MM NOT_NAMED 1888-01-10 03:00:00 TS -17.9650 68.9075 main 1193 1163 _________P____ -1 -17.9650 68.9075 TC 6 260
1888009S17071 1888 7 SI MM NOT_NAMED 1888-01-10 06:00:00 TS -18.0000 68.6000 main 1163 1132 _________O____ -1 -18.0000 68.6000 TC 6 266
1888009S17071 1888 7 SI MM NOT_NAMED 1888-01-10 09:00:00 TS -17.9999 68.3074 main 1132 1101 _________P____ -1 -17.9999 68.3074 TC 6 270
1888009S17071 1888 7 SI MM NOT_NAMED 1888-01-10 12:00:00 TS -18.0000 68.0000 main 1101 1071 _________O____ -1 -18.0000 68.0000 TC 6 266
1888009S17071 1888 7 SI MM NOT_NAMED 1888-01-10 15:00:00 TS -18.0425 67.6575 main 1071 1027 _________P____ -1 -18.0425 67.6575 TC 7 261
1888009S17071 1888 7 SI MM NOT_NAMED 1888-01-10 18:00:00 TS -18.1000 67.3000 main 1027 996 _________O____ -1 -18.1000 67.3000 TC 7 261
1888009S17071 1888 7 SI MM NOT_NAMED 1888-01-10 21:00:00 TS -18.1423 66.9649 main 996 953 _________P____ -1 -18.1423 66.9649 TC 7 261
1888009S17071 1888 7 SI MM NOT_NAMED 1888-01-11 00:00:00 TS -18.2000 66.6000 main 953 909 _________O____ -1 -18.2000 66.6000 TC 8 258
1888009S17071 1888 7 SI MM NOT_NAMED 1888-01-11 03:00:00 TS -18.3000 66.1651 main 909 855 _________P____ -1 -18.3000 66.1651 TC 9 257
1888009S17071 1888 7 SI MM NOT_NAMED 1888-01-11 06:00:00 TS -18.4000 65.7000 main 855 811 _________O____ -1 -18.4000 65.7000 TC 9 260
1888009S17071 1888 7 SI MM NOT_NAMED 1888-01-11 09:00:00 TS -18.4574 65.2499 main 801 761 _________P____ -1 -18.4574 65.2499 TC 9 263
1888009S17071 1888 7 SI MM NOT_NAMED 1888-01-11 12:00:00 TS -18.5000 64.8000 main 761 720 _________O____ -1 -18.5000 64.8000 TC 9 264
1888009S17071 1888 7 SI MM NOT_NAMED 1888-01-11 15:00:00 TS -18.5498 64.3575 main 720 667 _________P____ -1 -18.5498 64.3575 TC 9 263
1888009S17071 1888 7 SI MM NOT_NAMED 1888-01-11 18:00:00 TS -18.6000 63.9000 main 667 617 _________O____ -1 -18.6000 63.9000 TC 9 264
1888009S17071 1888 7 SI MM NOT_NAMED 1888-01-11 21:00:00 TS -18.6424 63.4074 main 617 563 _________P____ -1 -18.6424 63.4074 TC 10 264
1888009S17071 1888 7 SI MM NOT_NAMED 1888-01-12 00:00:00 TS -18.7000 62.9000 main 563 510 _________O____ -1 -18.7000 62.9000 TC 10 261
1888009S17071 1888 7 SI MM NOT_NAMED 1888-01-12 03:00:00 TS -18.7998 62.4076 main 510 457 _________P____ -1 -18.7998 62.4076 TC 10 258
1888009S17071 1888 7 SI MM NOT_NAMED 1888-01-12 06:00:00 TS -18.9000 61.9000 main 457 404 _________O____ -1 -18.9000 61.9000 TC 10 261
1888009S17071 1888 7 SI MM NOT_NAMED 1888-01-12 09:00:00 TS -18.9575 61.3499 main 394 346 _________P____ -1 -18.9575 61.3499 TC 10 265
1888009S17071 1888 7 SI MM NOT_NAMED 1888-01-12 12:00:00 TS -19.0000 60.8000 main 346 298 _________O____ -1 -19.0000 60.8000 TC 10 265
1888009S17071 1888 7 SI MM NOT_NAMED 1888-01-12 15:00:00 TS -19.0498 60.2925 main 298 246 _________P____ -1 -19.0498 60.2925 TC 10 264
1888009S17071 1888 7 SI MM NOT_NAMED 1888-01-12 18:00:00 TS -19.1000 59.8000 main 246 201 _________O____ -1 -19.1000 59.8000 TC 9 264
1888009S17071 1888 7 SI MM NOT_NAMED 1888-01-12 21:00:00 TS -19.1422 59.3224 main 201 152 _________P____ -1 -19.1422 59.3224 TC 10 264
1888009S17071 1888 7 SI MM NOT_NAMED 1888-01-13 00:00:00 TS -19.2000 58.8000 main 152 103 _________O____ -1 -19.2000 58.8000 TC 11 262
1888009S17071 1888 7 SI MM NOT_NAMED 1888-01-13 03:00:00 TS -19.3000 58.1726 main 103 78 _________P____ -1 -19.3000 58.1726 TC 12 261
1888009S17071 1888 7 SI MM NOT_NAMED 1888-01-13 06:00:00 TS -19.4000 57.5000 main 78 78 _________O____ -1 -19.4000 57.5000 TC 13 263
1888009S17071 1888 7 SI MM NOT_NAMED 1888-01-13 09:00:00 TS -19.4572 56.8574 main 91 91 _________P____ -1 -19.4572 56.8574 TC 12 265
1888009S17071 1888 7 SI MM NOT_NAMED 1888-01-13 12:00:00 TS -19.5000 56.2000 main 151 151 _________O____ -1 -19.5000 56.2000 TC 13 266
1888009S17071 1888 7 SI MM NOT_NAMED 1888-01-13 15:00:00 TS -19.5497 55.5149 main 167 156 _________P____ -1 -19.5497 55.5149 TC 13 266
1888009S17071 1888 7 SI MM NOT_NAMED 1888-01-13 18:00:00 TS -19.6000 54.8000 main 165 165 _________O____ -1 -19.6000 54.8000 TC 14 266
1888009S17071 1888 7 SI MM NOT_NAMED 1888-01-13 21:00:00 TS -19.6507 54.0576 main 191 191 _________P____ -1 -19.6507 54.0576 TC 14 266
1888009S17071 1888 7 SI MM NOT_NAMED 1888-01-14 00:00:00 TS -19.7000 53.3000 main 252 _________O____ -1 -19.7000 53.3000 TC 14 266

About IBTrACS Database

This database is a web-friendly format of International Best Track Archive for Climate Stewardship (IBTrACS), a global best track data archive curated by NOAA dating back to 1842.

Updated: 2021-11-26